Terminal Aerodrome Forecast
Issued by NWS Glasgow, MT

Home | Current Version | Previous Version | Text Only | Print | Product List | Glossary On
Versions: 1 2 3 4 5 6 7 8 9 10 11 12 13 14 15
000
FTUS45 KGGW 272000 AAA
TAFGGW
TAF AMD
KGGW 272043Z 2721/2818 13013G19KT P6SM VCSH BKN080
      TEMPO 2721/2724 VRB15G25KT 4SM -TSRA SCT040CB BKN070
     FM280400 VRB05KT P6SM VCSH BKN090
     FM281000 35008KT 6SM BR FEW005 SCT150=

USA.gov is the U.S. government's official web portal to all federal, state and local government web resources and services.